createdAt,value
2019-02-12T00:00:37.770Z,1012.94
2019-02-12T00:01:37.716Z,1012.91
2019-02-12T00:02:37.706Z,1012.92
2019-02-12T00:03:37.695Z,1012.88
2019-02-12T00:04:37.684Z,1012.88
2019-02-12T00:05:37.695Z,1012.92
2019-02-12T00:06:37.679Z,1012.94
2019-02-12T00:07:37.651Z,1012.85
2019-02-12T00:08:37.642Z,1012.84
2019-02-12T00:09:37.630Z,1012.78
2019-02-12T00:10:37.644Z,1012.77
2019-02-12T00:11:37.607Z,1012.83
2019-02-12T00:12:37.603Z,1012.93
2019-02-12T00:13:37.605Z,1012.96
2019-02-12T00:14:37.576Z,1012.98
2019-02-12T00:15:37.589Z,1013.00
2019-02-12T00:16:37.553Z,1013.05
2019-02-12T00:17:37.545Z,1013.11
2019-02-12T00:18:37.531Z,1013.10
2019-02-12T00:19:37.544Z,1013.09
2019-02-12T00:20:37.534Z,1013.12
2019-02-12T00:21:37.499Z,1013.10
2019-02-12T00:22:37.494Z,1013.14
2019-02-12T00:23:37.477Z,1013.16
2019-02-12T00:24:37.466Z,1013.15
2019-02-12T00:25:37.498Z,1013.19
2019-02-12T00:26:37.444Z,1013.20
2019-02-12T00:27:37.435Z,1013.22
2019-02-12T00:28:37.422Z,1013.25
2019-02-12T00:29:37.412Z,1013.22
2019-02-12T00:30:37.423Z,1013.25
2019-02-12T00:31:37.400Z,1013.24
2019-02-12T00:32:37.451Z,1013.29
2019-02-12T00:33:37.372Z,1013.27
2019-02-12T00:34:37.370Z,1013.37
2019-02-12T00:35:37.369Z,1013.37
2019-02-12T00:36:37.347Z,1013.40
2019-02-12T00:37:37.324Z,1013.38
2019-02-12T00:38:37.312Z,1013.37
2019-02-12T00:39:37.338Z,1013.38
2019-02-12T00:40:37.313Z,1013.39
2019-02-12T00:41:37.302Z,1013.42
2019-02-12T00:42:37.270Z,1013.44
2019-02-12T00:43:37.261Z,1013.46
2019-02-12T00:44:37.264Z,1013.53
2019-02-12T00:45:37.236Z,1013.52
2019-02-12T00:46:37.248Z,1013.52
2019-02-12T00:47:37.214Z,1013.51
2019-02-12T00:48:37.202Z,1013.48
2019-02-12T00:49:37.191Z,1013.53
2019-02-12T00:50:37.208Z,1013.50
2019-02-12T00:51:37.200Z,1013.51
2019-02-12T00:52:37.159Z,1013.50
2019-02-12T00:53:37.149Z,1013.49
2019-02-12T00:54:37.143Z,1013.48
2019-02-12T00:55:37.125Z,1013.49
2019-02-12T00:56:37.152Z,1013.49
2019-02-12T00:57:37.124Z,1013.53
2019-02-12T00:58:37.093Z,1013.53
2019-02-12T00:59:37.081Z,1013.51
2019-02-12T01:00:37.071Z,1013.59
2019-02-12T01:01:37.081Z,1013.59
2019-02-12T01:02:37.051Z,1013.64
2019-02-12T01:03:37.040Z,1013.60
2019-02-12T01:04:37.095Z,1013.61
2019-02-12T01:05:37.037Z,1013.63
2019-02-12T01:06:37.026Z,1013.61
2019-02-12T01:07:37.005Z,1013.60
2019-02-12T01:08:36.985Z,1013.67
2019-02-12T01:09:36.974Z,1013.65
2019-02-12T01:10:36.968Z,1013.67
2019-02-12T01:11:36.983Z,1013.67
2019-02-12T01:12:36.939Z,1013.72
2019-02-12T01:13:36.930Z,1013.68
2019-02-12T01:14:36.920Z,1013.70
2019-02-12T01:15:43.941Z,1013.71
2019-02-12T01:16:36.918Z,1013.77
2019-02-12T01:17:36.886Z,1013.77
2019-02-12T01:18:36.883Z,1013.75
2019-02-12T01:19:43.900Z,1013.76
2019-02-12T01:20:36.853Z,1013.77
2019-02-12T01:21:36.879Z,1013.75
2019-02-12T01:22:36.856Z,1013.78
2019-02-12T01:23:36.819Z,1013.83
2019-02-12T01:24:36.824Z,1013.79
2019-02-12T01:25:36.798Z,1013.79
2019-02-12T01:26:36.812Z,1013.75
2019-02-12T01:27:36.778Z,1013.74
2019-02-12T01:28:36.765Z,1013.72
2019-02-12T01:29:36.765Z,1013.80
2019-02-12T01:30:36.756Z,1013.74
2019-02-12T01:31:36.777Z,1013.75
2019-02-12T01:32:36.724Z,1013.79
2019-02-12T01:33:36.711Z,1013.72
2019-02-12T01:34:36.703Z,1013.65
2019-02-12T01:35:36.690Z,1013.63
2019-02-12T01:36:36.703Z,1013.70
2019-02-12T01:37:36.683Z,1013.74
2019-02-12T01:38:36.657Z,1013.74
2019-02-12T01:39:36.649Z,1013.76
2019-02-12T01:40:36.635Z,1013.68
2019-02-12T01:41:36.649Z,1013.78
2019-02-12T01:42:36.614Z,1013.76
2019-02-12T01:43:36.618Z,1013.78
2019-02-12T01:44:36.595Z,1013.79
2019-02-12T01:45:36.582Z,1013.73
2019-02-12T01:46:36.592Z,1013.81
2019-02-12T01:47:36.560Z,1013.74
2019-02-12T01:48:36.551Z,1013.75
2019-02-12T01:49:36.569Z,1013.77
2019-02-12T01:50:36.537Z,1013.80
2019-02-12T01:51:36.537Z,1013.77
2019-02-12T01:52:36.506Z,1013.76
2019-02-12T01:53:36.495Z,1013.80
2019-02-12T01:54:36.483Z,1013.77
2019-02-12T01:55:36.476Z,1013.79
2019-02-12T01:56:36.499Z,1013.80
2019-02-12T01:57:36.451Z,1013.83
2019-02-12T01:58:36.440Z,1013.79
2019-02-12T01:59:36.433Z,1013.81
2019-02-12T02:00:36.418Z,1013.78
2019-02-12T02:01:36.428Z,1013.82
2019-02-12T02:02:36.418Z,1013.79
2019-02-12T02:03:36.407Z,1013.78
2019-02-12T02:04:36.376Z,1013.80
2019-02-12T02:05:36.364Z,1013.74
2019-02-12T02:06:36.373Z,1013.75
2019-02-12T02:07:36.343Z,1013.72
2019-02-12T02:08:36.332Z,1013.74
2019-02-12T02:09:36.328Z,1013.74
2019-02-12T02:10:36.372Z,1013.69
2019-02-12T02:11:36.334Z,1013.69
2019-02-12T02:12:36.307Z,1013.70
2019-02-12T02:13:36.277Z,1013.74
2019-02-12T02:14:36.288Z,1013.72
2019-02-12T02:15:36.254Z,1013.75
2019-02-12T02:16:36.265Z,1013.75
2019-02-12T02:17:36.279Z,1013.76
2019-02-12T02:18:36.256Z,1013.76
2019-02-12T02:19:36.231Z,1013.70
2019-02-12T02:20:36.200Z,1013.73
2019-02-12T02:21:43.934Z,1013.71
2019-02-12T02:22:37.193Z,1013.74
2019-02-12T02:23:36.167Z,1013.75
2019-02-12T02:24:36.157Z,1013.71
2019-02-12T02:25:36.149Z,1013.71
2019-02-12T02:26:36.239Z,1013.74
2019-02-12T02:27:36.140Z,1013.73
2019-02-12T02:28:36.122Z,1013.71
2019-02-12T02:29:36.124Z,1013.76
2019-02-12T02:30:36.154Z,1013.72
2019-02-12T02:31:36.086Z,1013.70
2019-02-12T02:32:36.091Z,1013.71
2019-02-12T02:33:36.080Z,1013.71
2019-02-12T02:34:36.049Z,1013.68
2019-02-12T02:35:36.039Z,1013.67
2019-02-12T02:36:36.026Z,1013.69
2019-02-12T02:37:36.041Z,1013.70
2019-02-12T02:38:36.027Z,1013.76
2019-02-12T02:39:35.994Z,1013.75
2019-02-12T02:40:35.983Z,1013.78
2019-02-12T02:41:35.971Z,1013.76
2019-02-12T02:42:35.982Z,1013.76
2019-02-12T02:43:35.949Z,1013.75
2019-02-12T02:44:35.958Z,1013.72
2019-02-12T02:45:35.936Z,1013.76
2019-02-12T02:46:35.996Z,1013.74
2019-02-12T02:47:35.941Z,1013.74
2019-02-12T02:48:35.895Z,1013.77
2019-02-12T02:49:35.909Z,1013.72
2019-02-12T02:50:35.874Z,1013.70
2019-02-12T02:51:35.865Z,1013.72
2019-02-12T02:52:35.890Z,1013.73
2019-02-12T02:53:35.840Z,1013.69
2019-02-12T02:54:35.832Z,1013.73
2019-02-12T02:55:35.821Z,1013.71
2019-02-12T02:56:35.808Z,1013.76
2019-02-12T02:57:35.839Z,1013.74
2019-02-12T02:58:35.788Z,1013.73
2019-02-12T02:59:35.779Z,1013.82
2019-02-12T03:00:35.769Z,1013.79
2019-02-12T03:01:35.755Z,1013.83
2019-02-12T03:02:35.768Z,1013.84
2019-02-12T03:03:35.762Z,1013.86
2019-02-12T03:04:35.724Z,1013.86
2019-02-12T03:05:35.711Z,1013.84
2019-02-12T03:06:35.700Z,1013.86
2019-02-12T03:07:35.713Z,1013.88
2019-02-12T03:08:35.698Z,1013.88
2019-02-12T03:09:35.686Z,1013.86
2019-02-12T03:10:35.657Z,1013.88
2019-02-12T03:11:35.647Z,1013.88
2019-02-12T03:12:35.655Z,1013.87
2019-02-12T03:13:35.623Z,1013.88
2019-02-12T03:14:35.612Z,1013.87
2019-02-12T03:15:35.617Z,1013.87
2019-02-12T03:16:35.590Z,1013.86
2019-02-12T03:17:35.604Z,1013.89
2019-02-12T03:18:35.567Z,1013.85
2019-02-12T03:19:35.557Z,1013.89
2019-02-12T03:20:35.546Z,1013.91
2019-02-12T03:21:35.548Z,1013.93
2019-02-12T03:22:35.546Z,1013.98
2019-02-12T03:23:35.513Z,1013.95
2019-02-12T03:24:35.502Z,1014.00
2019-02-12T03:25:35.519Z,1013.96
2019-02-12T03:26:35.484Z,1013.99
2019-02-12T03:27:35.531Z,1014.01
2019-02-12T03:28:35.472Z,1013.98
2019-02-12T03:29:35.446Z,1014.06
2019-02-12T03:30:35.443Z,1014.03
2019-02-12T03:31:35.426Z,1014.04
2019-02-12T03:32:35.437Z,1014.00
2019-02-12T03:33:35.406Z,1013.95
2019-02-12T03:34:35.398Z,1013.95
2019-02-12T03:35:35.394Z,1013.99
2019-02-12T03:36:35.369Z,1013.99
2019-02-12T03:37:35.384Z,1014.01
2019-02-12T03:38:35.350Z,1013.95
2019-02-12T03:39:35.339Z,1014.03
2019-02-12T03:40:35.326Z,1014.01
2019-02-12T03:41:35.327Z,1014.02
2019-02-12T03:42:35.344Z,1014.06
2019-02-12T03:43:35.293Z,1014.02
2019-02-12T03:44:35.282Z,1014.05
2019-02-12T03:45:35.272Z,1014.06
2019-02-12T03:46:35.261Z,1014.08
2019-02-12T03:47:35.270Z,1014.11
2019-02-12T03:48:35.245Z,1014.11
2019-02-12T03:49:35.234Z,1014.05
2019-02-12T03:50:35.222Z,1014.02
2019-02-12T03:51:35.278Z,1014.01
2019-02-12T03:52:35.230Z,1014.03
2019-02-12T03:53:35.181Z,1014.07
2019-02-12T03:54:35.187Z,1014.09
2019-02-12T03:55:35.162Z,1014.11
2019-02-12T03:56:35.151Z,1014.16
2019-02-12T03:57:35.193Z,1014.12
2019-02-12T03:58:35.127Z,1014.09
2019-02-12T03:59:35.118Z,1014.09
2019-02-12T04:00:35.108Z,1014.07
2019-02-12T04:01:35.095Z,1014.16
2019-02-12T04:02:35.123Z,1014.13
2019-02-12T04:03:36.557Z,1014.15
2019-02-12T04:04:35.061Z,1014.14
2019-02-12T04:05:35.051Z,1014.14
2019-02-12T04:06:35.061Z,1014.12
2019-02-12T04:07:35.030Z,1014.07
2019-02-12T04:08:35.052Z,1014.12
2019-02-12T04:09:35.016Z,1014.10
2019-02-12T04:10:34.996Z,1014.10
2019-02-12T04:11:34.987Z,1014.16
2019-02-12T04:12:34.979Z,1014.07
2019-02-12T04:13:34.986Z,1014.09
2019-02-12T04:14:34.952Z,1014.09
2019-02-12T04:15:34.965Z,1014.10
2019-02-12T04:16:34.931Z,1014.11
2019-02-12T04:17:34.919Z,1014.12
2019-02-12T04:18:34.984Z,1014.12
2019-02-12T04:19:34.897Z,1014.17
2019-02-12T04:20:34.886Z,1014.17
2019-02-12T04:21:34.888Z,1014.14
2019-02-12T04:22:34.868Z,1014.14
2019-02-12T04:23:34.959Z,1014.11
2019-02-12T04:24:34.854Z,1014.15
2019-02-12T04:25:34.833Z,1014.15
2019-02-12T04:26:34.840Z,1014.15
2019-02-12T04:27:34.810Z,1014.10
2019-02-12T04:28:34.829Z,1014.11
2019-02-12T04:29:34.797Z,1014.08
2019-02-12T04:30:34.779Z,1014.08
2019-02-12T04:31:34.767Z,1014.11
2019-02-12T04:32:34.759Z,1014.06
2019-02-12T04:33:34.765Z,1014.07
2019-02-12T04:34:34.758Z,1014.06
2019-02-12T04:35:34.722Z,1014.10
2019-02-12T04:36:34.713Z,1014.07
2019-02-12T04:37:34.740Z,1014.04
2019-02-12T04:38:34.716Z,1014.05
2019-02-12T04:39:34.678Z,1014.09
2019-02-12T04:40:34.686Z,1014.08
2019-02-12T04:41:34.660Z,1014.11
2019-02-12T04:42:34.710Z,1014.11
2019-02-12T04:43:34.673Z,1014.11
2019-02-12T04:44:34.631Z,1014.07
2019-02-12T04:45:34.611Z,1014.13
2019-02-12T04:46:34.632Z,1014.16
2019-02-12T04:47:34.589Z,1014.13
2019-02-12T04:48:34.599Z,1014.13
2019-02-12T04:49:34.588Z,1014.15
2019-02-12T04:50:34.556Z,1014.12
2019-02-12T04:51:34.556Z,1014.18
2019-02-12T04:52:34.535Z,1014.20
2019-02-12T04:53:34.546Z,1014.18
2019-02-12T04:54:34.528Z,1014.23
2019-02-12T04:55:34.503Z,1014.26
2019-02-12T04:56:34.489Z,1014.26
2019-02-12T04:57:34.482Z,1014.28
2019-02-12T04:58:34.500Z,1014.31
2019-02-12T04:59:34.458Z,1014.36
2019-02-12T05:00:34.471Z,1014.33
2019-02-12T05:01:34.434Z,1014.29
2019-02-12T05:02:34.423Z,1014.27
2019-02-12T05:03:34.434Z,1014.28
2019-02-12T05:04:34.401Z,1014.27
2019-02-12T05:05:34.390Z,1014.30
2019-02-12T05:06:34.395Z,1014.31
2019-02-12T05:07:34.370Z,1014.31
2019-02-12T05:08:34.380Z,1014.38
2019-02-12T05:09:34.346Z,1014.35
2019-02-12T05:10:34.338Z,1014.32
2019-02-12T05:11:34.326Z,1014.32
2019-02-12T05:12:34.328Z,1014.35
2019-02-12T05:13:34.343Z,1014.34
2019-02-12T05:14:34.290Z,1014.30
2019-02-12T05:15:34.283Z,1014.30
2019-02-12T05:16:34.270Z,1014.31
2019-02-12T05:17:34.261Z,1014.27
2019-02-12T05:18:34.270Z,1014.29
2019-02-12T05:19:34.249Z,1014.28
2019-02-12T05:20:34.226Z,1014.29
2019-02-12T05:21:34.217Z,1014.32
2019-02-12T05:22:43.178Z,1014.32
2019-02-12T05:23:35.213Z,1014.32
2019-02-12T05:24:34.184Z,1014.30
2019-02-12T05:25:34.189Z,1014.34
2019-02-12T05:26:34.161Z,1014.43
2019-02-12T05:27:34.159Z,1014.40
2019-02-12T05:28:34.163Z,1014.39
2019-02-12T05:29:34.130Z,1014.40
2019-02-12T05:30:34.117Z,1014.33
2019-02-12T05:31:34.117Z,1014.31
2019-02-12T05:32:34.113Z,1014.30
2019-02-12T05:33:34.105Z,1014.28
2019-02-12T05:34:34.073Z,1014.32
2019-02-12T05:35:34.062Z,1014.33
2019-02-12T05:36:34.051Z,1014.37
2019-02-12T05:37:34.041Z,1014.35
2019-02-12T05:38:34.066Z,1014.43
2019-02-12T05:39:34.020Z,1014.43
2019-02-12T05:40:34.018Z,1014.38
2019-02-12T05:41:33.999Z,1014.38
2019-02-12T05:42:33.985Z,1014.43
2019-02-12T05:43:34.087Z,1014.40
2019-02-12T05:44:33.978Z,1014.42
2019-02-12T05:45:33.955Z,1014.46
2019-02-12T05:46:33.941Z,1014.42
2019-02-12T05:47:33.934Z,1014.40
2019-02-12T05:48:33.922Z,1014.37
2019-02-12T05:49:33.929Z,1014.38
2019-02-12T05:50:33.912Z,1014.35
2019-02-12T05:51:33.897Z,1014.34
2019-02-12T05:52:33.882Z,1014.35
2019-02-12T05:53:33.933Z,1014.37
2019-02-12T05:54:33.882Z,1014.35
2019-02-12T05:55:33.851Z,1014.36
2019-02-12T05:56:33.849Z,1014.38
2019-02-12T05:57:33.820Z,1014.37
2019-02-12T05:58:33.820Z,1014.42
2019-02-12T05:59:33.834Z,1014.34
2019-02-12T06:00:33.807Z,1014.38
2019-02-12T06:01:33.774Z,1014.35
2019-02-12T06:02:33.765Z,1014.34
2019-02-12T06:03:33.768Z,1014.35
2019-02-12T06:04:33.776Z,1014.43
2019-02-12T06:05:33.754Z,1014.44
2019-02-12T06:06:33.724Z,1014.41
2019-02-12T06:07:33.712Z,1014.37
2019-02-12T06:08:33.699Z,1014.33
2019-02-12T06:09:33.714Z,1014.37
2019-02-12T06:10:33.689Z,1014.35
2019-02-12T06:11:33.676Z,1014.35
2019-02-12T06:12:33.655Z,1014.41
2019-02-12T06:13:33.646Z,1014.42
2019-02-12T06:14:33.651Z,1014.44
2019-02-12T06:15:33.621Z,1014.46
2019-02-12T06:16:33.609Z,1014.44
2019-02-12T06:17:33.608Z,1014.45
2019-02-12T06:18:33.592Z,1014.43
2019-02-12T06:19:33.608Z,1014.42
2019-02-12T06:20:33.566Z,1014.46
2019-02-12T06:21:33.556Z,1014.43
2019-02-12T06:22:33.544Z,1014.42
2019-02-12T06:23:33.532Z,1014.46
2019-02-12T06:24:33.544Z,1014.42
2019-02-12T06:25:33.533Z,1014.41
2019-02-12T06:26:33.500Z,1014.42
2019-02-12T06:27:33.491Z,1014.40
2019-02-12T06:28:33.478Z,1014.39
2019-02-12T06:29:33.490Z,1014.35
2019-02-12T06:30:33.458Z,1014.29
2019-02-12T06:31:33.464Z,1014.35
2019-02-12T06:32:33.436Z,1014.34
2019-02-12T06:33:33.423Z,1014.39
2019-02-12T06:34:33.434Z,1014.38
2019-02-12T06:35:33.402Z,1014.47
2019-02-12T06:36:33.393Z,1014.43
2019-02-12T06:37:33.389Z,1014.45
2019-02-12T06:38:33.384Z,1014.47
2019-02-12T06:39:33.379Z,1014.50
2019-02-12T06:40:33.347Z,1014.54
2019-02-12T06:41:33.336Z,1014.58
2019-02-12T06:42:33.330Z,1014.56
2019-02-12T06:43:33.318Z,1014.58
2019-02-12T06:44:33.338Z,1014.59
2019-02-12T06:45:33.320Z,1014.59
2019-02-12T06:46:33.289Z,1014.60
2019-02-12T06:47:33.272Z,1014.58
2019-02-12T06:48:33.262Z,1014.58
2019-02-12T06:49:33.275Z,1014.59
2019-02-12T06:50:33.278Z,1014.59
2019-02-12T06:51:33.229Z,1014.57
2019-02-12T06:52:33.217Z,1014.61
2019-02-12T06:53:33.207Z,1014.64
2019-02-12T06:54:33.221Z,1014.69
2019-02-12T06:55:33.192Z,1014.68
2019-02-12T06:56:33.184Z,1014.67
2019-02-12T06:57:33.177Z,1014.66
2019-02-12T06:58:33.168Z,1014.67
2019-02-12T06:59:33.199Z,1014.70
2019-02-12T07:00:33.129Z,1014.75
2019-02-12T07:01:33.119Z,1014.75
2019-02-12T07:02:33.109Z,1014.74
2019-02-12T07:03:33.098Z,1014.75
2019-02-12T07:04:33.116Z,1014.80
2019-02-12T07:05:33.091Z,1014.75
2019-02-12T07:06:33.065Z,1014.78
2019-02-12T07:07:33.054Z,1014.76
2019-02-12T07:08:33.044Z,1014.79
2019-02-12T07:09:33.061Z,1014.79
2019-02-12T07:10:33.021Z,1014.81
2019-02-12T07:11:33.018Z,1014.83
2019-02-12T07:12:33.003Z,1014.83
2019-02-12T07:13:33.035Z,1014.86
2019-02-12T07:14:33.004Z,1014.77
2019-02-12T07:15:32.971Z,1014.87
2019-02-12T07:16:32.987Z,1014.86
2019-02-12T07:17:32.948Z,1014.85
2019-02-12T07:18:32.934Z,1014.83
2019-02-12T07:19:32.956Z,1014.84
2019-02-12T07:20:32.917Z,1014.85
2019-02-12T07:21:32.928Z,1014.84
2019-02-12T07:22:32.915Z,1014.87
2019-02-12T07:23:32.880Z,1014.82
2019-02-12T07:24:32.896Z,1014.89
2019-02-12T07:25:32.882Z,1014.91
2019-02-12T07:26:32.852Z,1014.92
2019-02-12T07:27:32.839Z,1014.90
2019-02-12T07:28:32.856Z,1014.90
2019-02-12T07:29:32.852Z,1014.88
2019-02-12T07:30:32.805Z,1014.92
2019-02-12T07:31:34.637Z,1014.94
2019-02-12T07:32:32.782Z,1014.94
2019-02-12T07:33:32.798Z,1014.97
2019-02-12T07:34:32.761Z,1015.01
2019-02-12T07:35:32.776Z,1015.01
2019-02-12T07:36:33.308Z,1014.91
2019-02-12T07:37:32.729Z,1014.93
2019-02-12T07:38:32.718Z,1014.96
2019-02-12T07:39:32.733Z,1014.97
2019-02-12T07:40:32.722Z,1015.02
2019-02-12T07:41:32.688Z,1015.01
2019-02-12T07:42:32.680Z,1015.08
2019-02-12T07:43:32.666Z,1015.06
2019-02-12T07:44:32.676Z,1015.07
2019-02-12T07:45:32.668Z,1015.06
2019-02-12T07:46:32.631Z,1015.07
2019-02-12T07:47:32.618Z,1015.11
2019-02-12T07:48:32.610Z,1015.11
2019-02-12T07:49:32.613Z,1015.14
2019-02-12T07:50:32.644Z,1015.18
2019-02-12T07:51:32.607Z,1015.21
2019-02-12T07:52:32.565Z,1015.20
2019-02-12T07:53:32.560Z,1015.22
2019-02-12T07:54:32.544Z,1015.27
2019-02-12T07:55:32.534Z,1015.26
2019-02-12T07:56:36.122Z,1015.26
2019-02-12T07:57:33.520Z,1015.24
2019-02-12T07:58:33.531Z,1015.29
2019-02-12T07:59:32.490Z,1015.33
2019-02-12T08:00:32.500Z,1015.32
2019-02-12T08:01:32.506Z,1015.32
2019-02-12T08:02:33.862Z,1015.30
2019-02-12T08:03:32.462Z,1015.23
2019-02-12T08:04:32.437Z,1015.28
2019-02-12T08:05:32.446Z,1015.29
2019-02-12T08:06:32.472Z,1015.34
2019-02-12T08:07:32.403Z,1015.34
2019-02-12T08:08:32.420Z,1015.38
2019-02-12T08:09:32.382Z,1015.42
2019-02-12T08:10:32.408Z,1015.43
2019-02-12T08:11:32.399Z,1015.46
2019-02-12T08:12:32.347Z,1015.46
2019-02-12T08:13:32.344Z,1015.49
2019-02-12T08:14:32.332Z,1015.50
2019-02-12T08:15:32.351Z,1015.53
2019-02-12T08:16:32.342Z,1015.55
2019-02-12T08:17:32.290Z,1015.57
2019-02-12T08:18:32.283Z,1015.60
2019-02-12T08:19:32.322Z,1015.63
2019-02-12T08:20:32.535Z,1015.62
2019-02-12T08:21:32.289Z,1015.60
2019-02-12T08:22:32.236Z,1015.65
2019-02-12T08:23:41.051Z,1015.64
2019-02-12T08:24:33.217Z,1015.66
2019-02-12T08:25:32.242Z,1015.71
2019-02-12T08:26:32.196Z,1015.71
2019-02-12T08:27:32.184Z,1015.66
2019-02-12T08:28:32.192Z,1015.70
2019-02-12T08:29:32.183Z,1015.73
2019-02-12T08:30:32.167Z,1015.72
2019-02-12T08:31:32.138Z,1015.78
2019-02-12T08:32:32.124Z,1015.81
2019-02-12T08:33:32.116Z,1015.80
2019-02-12T08:34:32.117Z,1015.79
2019-02-12T08:35:32.223Z,1015.77
2019-02-12T08:36:32.162Z,1015.75
2019-02-12T08:37:32.117Z,1015.78
2019-02-12T08:38:32.087Z,1015.79
2019-02-12T08:39:32.289Z,1015.76
2019-02-12T08:40:32.056Z,1015.79
2019-02-12T08:41:32.049Z,1015.82
2019-02-12T08:42:32.013Z,1015.84
2019-02-12T08:43:32.017Z,1015.84
2019-02-12T08:44:33.496Z,1015.84
2019-02-12T08:45:32.003Z,1015.84
2019-02-12T08:46:31.967Z,1015.84
2019-02-12T08:47:32.057Z,1015.87
2019-02-12T08:48:32.772Z,1015.86
2019-02-12T08:49:31.966Z,1015.88
2019-02-12T08:50:31.948Z,1015.87
2019-02-12T08:51:31.946Z,1015.87
2019-02-12T08:52:31.925Z,1015.89
2019-02-12T08:53:31.938Z,1015.90
2019-02-12T08:54:31.880Z,1015.91
2019-02-12T08:55:31.934Z,1015.91
2019-02-12T08:56:31.854Z,1015.95
2019-02-12T08:57:31.849Z,1015.94
2019-02-12T08:58:31.836Z,1015.97
2019-02-12T08:59:31.943Z,1016.01
2019-02-12T09:00:31.835Z,1015.99
2019-02-12T09:01:31.828Z,1016.00
2019-02-12T09:02:31.787Z,1016.03
2019-02-12T09:03:31.776Z,1016.05
2019-02-12T09:04:31.770Z,1016.08
2019-02-12T09:05:31.777Z,1016.06
2019-02-12T09:06:31.786Z,1016.10
2019-02-12T09:07:31.735Z,1016.13
2019-02-12T09:08:31.720Z,1016.10
2019-02-12T09:09:31.713Z,1016.11
2019-02-12T09:10:31.721Z,1016.12
2019-02-12T09:11:31.690Z,1016.11
2019-02-12T09:12:31.677Z,1016.17
2019-02-12T09:13:31.713Z,1016.16
2019-02-12T09:14:31.657Z,1016.18
2019-02-12T09:15:31.679Z,1016.14
2019-02-12T09:16:31.634Z,1016.15
2019-02-12T09:17:31.620Z,1016.14
2019-02-12T09:18:31.622Z,1016.18
2019-02-12T09:19:31.626Z,1016.19
2019-02-12T09:20:31.590Z,1016.18
2019-02-12T09:21:31.599Z,1016.17
2019-02-12T09:22:31.766Z,1016.18
2019-02-12T09:23:31.598Z,1016.22
2019-02-12T09:24:31.637Z,1016.25
2019-02-12T09:25:31.648Z,1016.26
2019-02-12T09:26:31.774Z,1016.22
2019-02-12T09:27:31.511Z,1016.19
2019-02-12T09:28:31.498Z,1016.18
2019-02-12T09:29:31.485Z,1016.16
2019-02-12T09:30:31.477Z,1016.18
2019-02-12T09:31:31.515Z,1016.20
2019-02-12T09:32:31.454Z,1016.24
2019-02-12T09:33:31.441Z,1016.21
2019-02-12T09:34:31.436Z,1016.23
2019-02-12T09:35:31.526Z,1016.28
2019-02-12T09:36:31.448Z,1016.25
2019-02-12T09:37:33.913Z,1016.30
2019-02-12T09:38:31.385Z,1016.24
2019-02-12T09:39:31.389Z,1016.29
2019-02-12T09:40:31.360Z,1016.30
2019-02-12T09:41:31.379Z,1016.33
2019-02-12T09:42:31.359Z,1016.37
2019-02-12T09:43:31.330Z,1016.32
2019-02-12T09:44:31.316Z,1016.31
2019-02-12T09:45:31.304Z,1016.33
2019-02-12T09:46:31.316Z,1016.30
2019-02-12T09:47:31.307Z,1016.30
2019-02-12T09:48:31.270Z,1016.32
2019-02-12T09:49:31.259Z,1016.29
2019-02-12T09:50:31.250Z,1016.28
2019-02-12T09:51:31.260Z,1016.29
2019-02-12T09:52:31.251Z,1016.30
2019-02-12T09:53:31.234Z,1016.31
2019-02-12T09:54:31.204Z,1016.32
2019-02-12T09:55:31.191Z,1016.33
2019-02-12T09:56:31.203Z,1016.34
2019-02-12T09:57:31.180Z,1016.32
2019-02-12T09:58:31.156Z,1016.31
2019-02-12T09:59:31.183Z,1016.29
2019-02-12T10:00:31.137Z,1016.30
2019-02-12T10:01:31.148Z,1016.30
2019-02-12T10:02:31.112Z,1016.27
2019-02-12T10:03:31.103Z,1016.27
2019-02-12T10:04:31.092Z,1016.31
2019-02-12T10:05:31.093Z,1016.27
2019-02-12T10:06:31.091Z,1016.28
2019-02-12T10:07:31.100Z,1016.27
2019-02-12T10:08:31.044Z,1016.32
2019-02-12T10:09:31.034Z,1016.32
2019-02-12T10:10:31.032Z,1016.33
2019-02-12T10:11:31.042Z,1016.28
2019-02-12T10:12:31.057Z,1016.33
2019-02-12T10:13:30.997Z,1016.34
2019-02-12T10:14:30.995Z,1016.34
2019-02-12T10:15:30.977Z,1016.40
2019-02-12T10:16:30.983Z,1016.43
2019-02-12T10:17:30.982Z,1016.46
2019-02-12T10:18:30.945Z,1016.45
2019-02-12T10:19:30.969Z,1016.44
2019-02-12T10:20:31.935Z,1016.41
2019-02-12T10:21:30.920Z,1016.47
2019-02-12T10:22:30.897Z,1016.44
2019-02-12T10:23:30.875Z,1016.46
2019-02-12T10:24:30.864Z,1016.45
2019-02-12T10:25:30.861Z,1016.43
2019-02-12T10:26:30.870Z,1016.45
2019-02-12T10:27:30.896Z,1016.47
2019-02-12T10:28:30.828Z,1016.49
2019-02-12T10:29:30.814Z,1016.47
2019-02-12T10:30:30.867Z,1016.50
2019-02-12T10:31:30.937Z,1016.46
2019-02-12T10:32:30.885Z,1016.47
2019-02-12T10:33:30.845Z,1016.48
2019-02-12T10:34:30.754Z,1016.46
2019-02-12T10:35:30.820Z,1016.45
2019-02-12T10:36:30.755Z,1016.45
2019-02-12T10:37:30.814Z,1016.45
2019-02-12T10:38:30.708Z,1016.43
2019-02-12T10:39:30.704Z,1016.45
2019-02-12T10:40:30.792Z,1016.44
2019-02-12T10:41:30.701Z,1016.44
2019-02-12T10:42:30.681Z,1016.39
2019-02-12T10:43:30.691Z,1016.44
2019-02-12T10:44:30.785Z,1016.46
2019-02-12T10:45:30.960Z,1016.47
2019-02-12T10:46:30.639Z,1016.49
2019-02-12T10:47:30.646Z,1016.48
2019-02-12T10:48:30.597Z,1016.48
2019-02-12T10:49:30.953Z,1016.44
2019-02-12T10:50:31.307Z,1016.40
2019-02-12T10:51:30.583Z,1016.47
2019-02-12T10:52:30.552Z,1016.39
2019-02-12T10:53:30.539Z,1016.41
2019-02-12T10:54:30.530Z,1016.42
2019-02-12T10:55:30.521Z,1016.43
2019-02-12T10:56:30.530Z,1016.37
2019-02-12T10:57:30.501Z,1016.41
2019-02-12T10:58:30.496Z,1016.43
2019-02-12T10:59:30.481Z,1016.42
2019-02-12T11:00:30.472Z,1016.42
2019-02-12T11:01:30.528Z,1016.37
2019-02-12T11:02:30.473Z,1016.35
2019-02-12T11:03:30.439Z,1016.35
2019-02-12T11:04:30.428Z,1016.36
2019-02-12T11:05:30.430Z,1016.40
2019-02-12T11:06:30.449Z,1016.39
2019-02-12T11:07:30.425Z,1016.40
2019-02-12T11:08:30.379Z,1016.37
2019-02-12T11:09:30.389Z,1016.37
2019-02-12T11:10:30.351Z,1016.34
2019-02-12T11:11:30.358Z,1016.36
2019-02-12T11:12:30.351Z,1016.34
2019-02-12T11:13:30.319Z,1016.31
2019-02-12T11:14:30.318Z,1016.24
2019-02-12T11:15:30.314Z,1016.24
2019-02-12T11:16:30.285Z,1016.20
2019-02-12T11:17:30.295Z,1016.19
2019-02-12T11:18:30.262Z,1016.18
2019-02-12T11:19:30.252Z,1016.19
2019-02-12T11:20:30.273Z,1016.15
2019-02-12T11:21:30.235Z,1016.19
2019-02-12T11:22:30.245Z,1016.21
2019-02-12T11:23:30.208Z,1016.22
2019-02-12T11:24:35.451Z,1016.28
2019-02-12T11:25:31.188Z,1016.28
2019-02-12T11:26:30.337Z,1016.33
2019-02-12T11:27:30.189Z,1016.33
2019-02-12T11:28:30.292Z,1016.36
2019-02-12T11:29:30.513Z,1016.39
2019-02-12T11:30:30.134Z,1016.38
2019-02-12T11:31:30.118Z,1016.38
2019-02-12T11:32:30.145Z,1016.35
2019-02-12T11:33:30.115Z,1016.33
2019-02-12T11:34:30.090Z,1016.32
2019-02-12T11:35:30.078Z,1016.29
2019-02-12T11:36:30.075Z,1016.30
2019-02-12T11:37:30.098Z,1016.31
2019-02-12T11:38:30.055Z,1016.29
2019-02-12T11:39:30.285Z,1016.32
2019-02-12T11:40:30.018Z,1016.34
2019-02-12T11:41:30.013Z,1016.36
2019-02-12T11:42:30.040Z,1016.35
2019-02-12T11:43:29.984Z,1016.36
2019-02-12T11:44:29.973Z,1016.40
2019-02-12T11:45:29.963Z,1016.33
2019-02-12T11:46:29.952Z,1016.40
2019-02-12T11:47:29.963Z,1016.38
2019-02-12T11:48:29.947Z,1016.38
2019-02-12T11:49:29.919Z,1016.34
2019-02-12T11:50:29.910Z,1016.38
2019-02-12T11:51:30.116Z,1016.36
2019-02-12T11:52:30.267Z,1016.37
2019-02-12T11:53:29.877Z,1016.37
2019-02-12T11:54:29.862Z,1016.40
2019-02-12T11:55:29.892Z,1016.31
2019-02-12T11:56:29.844Z,1016.33
2019-02-12T11:57:29.853Z,1016.36
2019-02-12T11:58:29.853Z,1016.37
2019-02-12T11:59:29.807Z,1016.36
2019-02-12T12:00:29.798Z,1016.38
2019-02-12T12:01:29.788Z,1016.39
2019-02-12T12:02:29.795Z,1016.38
2019-02-12T12:03:29.799Z,1016.34
2019-02-12T12:04:29.753Z,1016.35
2019-02-12T12:05:29.750Z,1016.36